sensor_id;sensor_type;location;lat;lon;timestamp;temperature;humidity
758;DHT22;363;48.764;9.172;2022-09-09T00:01:59;16.10;99.90
758;DHT22;363;48.764;9.172;2022-09-09T00:07:18;15.90;99.90
758;DHT22;363;48.764;9.172;2022-09-09T00:10:34;16.10;99.90
758;DHT22;363;48.764;9.172;2022-09-09T00:12:50;15.60;99.90
758;DHT22;363;48.764;9.172;2022-09-09T00:15:24;16.00;99.90
758;DHT22;363;48.764;9.172;2022-09-09T00:17:58;15.80;99.90
758;DHT22;363;48.764;9.172;2022-09-09T00:20:34;15.90;99.90
758;DHT22;363;48.764;9.172;2022-09-09T00:23:01;15.70;99.90
758;DHT22;363;48.764;9.172;2022-09-09T00:25:43;15.90;99.90
758;DHT22;363;48.764;9.172;2022-09-09T00:28:20;15.90;99.90
758;DHT22;363;48.764;9.172;2022-09-09T00:30:48;15.80;99.90
758;DHT22;363;48.764;9.172;2022-09-09T00:33:14;16.00;99.90
758;DHT22;363;48.764;9.172;2022-09-09T00:35:44;16.10;99.90
758;DHT22;363;48.764;9.172;2022-09-09T00:38:28;16.10;99.90
758;DHT22;363;48.764;9.172;2022-09-09T00:41:26;15.80;99.90
758;DHT22;363;48.764;9.172;2022-09-09T00:46:45;16.00;99.90
758;DHT22;363;48.764;9.172;2022-09-09T00:49:55;16.10;99.90
758;DHT22;363;48.764;9.172;2022-09-09T00:54:47;16.10;99.90
758;DHT22;363;48.764;9.172;2022-09-09T00:57:34;16.20;99.90
758;DHT22;363;48.764;9.172;2022-09-09T01:00:21;16.00;99.90
758;DHT22;363;48.764;9.172;2022-09-09T01:03:00;16.20;99.90
758;DHT22;363;48.764;9.172;2022-09-09T01:05:39;16.20;99.90
758;DHT22;363;48.764;9.172;2022-09-09T01:08:24;16.10;99.90
758;DHT22;363;48.764;9.172;2022-09-09T01:10:54;16.40;99.90
758;DHT22;363;48.764;9.172;2022-09-09T01:13:26;16.50;99.90
758;DHT22;363;48.764;9.172;2022-09-09T01:15:53;16.60;99.90
758;DHT22;363;48.764;9.172;2022-09-09T01:18:29;16.40;99.90
758;DHT22;363;48.764;9.172;2022-09-09T01:21:09;16.40;99.90
758;DHT22;363;48.764;9.172;2022-09-09T01:26:37;16.60;99.90
758;DHT22;363;48.764;9.172;2022-09-09T01:29:08;16.60;99.90
758;DHT22;363;48.764;9.172;2022-09-09T01:31:57;16.80;99.90
758;DHT22;363;48.764;9.172;2022-09-09T01:34:27;16.70;99.90
758;DHT22;363;48.764;9.172;2022-09-09T01:39:30;16.50;99.90
758;DHT22;363;48.764;9.172;2022-09-09T01:41:56;16.50;99.90
758;DHT22;363;48.764;9.172;2022-09-09T01:44:23;16.40;99.90
758;DHT22;363;48.764;9.172;2022-09-09T01:46:50;16.40;99.90
758;DHT22;363;48.764;9.172;2022-09-09T01:49:16;16.60;99.90
758;DHT22;363;48.764;9.172;2022-09-09T01:51:41;16.70;99.90
758;DHT22;363;48.764;9.172;2022-09-09T01:54:09;16.60;99.90
758;DHT22;363;48.764;9.172;2022-09-09T01:59:39;16.70;99.90
758;DHT22;363;48.764;9.172;2022-09-09T02:04:40;16.50;99.90
758;DHT22;363;48.764;9.172;2022-09-09T02:07:19;16.70;99.90
758;DHT22;363;48.764;9.172;2022-09-09T02:09:52;16.70;99.90
758;DHT22;363;48.764;9.172;2022-09-09T02:12:24;16.90;99.90
758;DHT22;363;48.764;9.172;2022-09-09T02:14:56;16.80;99.90
758;DHT22;363;48.764;9.172;2022-09-09T02:17:31;16.60;99.90
758;DHT22;363;48.764;9.172;2022-09-09T02:20:12;16.60;99.90
758;DHT22;363;48.764;9.172;2022-09-09T02:22:40;16.30;99.90
758;DHT22;363;48.764;9.172;2022-09-09T02:25:09;16.30;99.90
758;DHT22;363;48.764;9.172;2022-09-09T02:27:36;16.30;99.90
758;DHT22;363;48.764;9.172;2022-09-09T02:30:03;16.10;99.90
758;DHT22;363;48.764;9.172;2022-09-09T02:32:31;16.20;99.90
758;DHT22;363;48.764;9.172;2022-09-09T02:35:05;16.30;99.90
758;DHT22;363;48.764;9.172;2022-09-09T02:37:36;16.10;99.90
758;DHT22;363;48.764;9.172;2022-09-09T02:40:04;16.20;99.90
758;DHT22;363;48.764;9.172;2022-09-09T02:42:31;15.90;99.90
758;DHT22;363;48.764;9.172;2022-09-09T02:44:56;16.10;99.90
758;DHT22;363;48.764;9.172;2022-09-09T02:47:27;15.90;99.90
758;DHT22;363;48.764;9.172;2022-09-09T02:55:17;15.80;99.90
758;DHT22;363;48.764;9.172;2022-09-09T02:57:46;15.70;99.90
758;DHT22;363;48.764;9.172;2022-09-09T03:00:13;15.70;99.90
758;DHT22;363;48.764;9.172;2022-09-09T03:02:38;15.90;99.90
758;DHT22;363;48.764;9.172;2022-09-09T03:05:05;15.80;99.90
758;DHT22;363;48.764;9.172;2022-09-09T03:07:31;15.90;99.90
758;DHT22;363;48.764;9.172;2022-09-09T03:09:57;15.90;99.90
758;DHT22;363;48.764;9.172;2022-09-09T03:12:23;15.80;99.90
758;DHT22;363;48.764;9.172;2022-09-09T03:14:49;15.70;99.90
758;DHT22;363;48.764;9.172;2022-09-09T03:17:15;16.00;99.90
758;DHT22;363;48.764;9.172;2022-09-09T03:19:40;15.80;99.90
758;DHT22;363;48.764;9.172;2022-09-09T03:22:07;15.90;99.90
758;DHT22;363;48.764;9.172;2022-09-09T03:24:35;15.90;99.90
758;DHT22;363;48.764;9.172;2022-09-09T03:27:00;15.80;99.90
758;DHT22;363;48.764;9.172;2022-09-09T03:29:26;15.80;99.90
758;DHT22;363;48.764;9.172;2022-09-09T03:31:52;15.90;99.90
758;DHT22;363;48.764;9.172;2022-09-09T03:34:17;15.90;99.90
758;DHT22;363;48.764;9.172;2022-09-09T03:36:43;15.40;99.90
758;DHT22;363;48.764;9.172;2022-09-09T03:39:08;15.70;99.90
758;DHT22;363;48.764;9.172;2022-09-09T03:41:34;15.60;99.90
758;DHT22;363;48.764;9.172;2022-09-09T03:43:59;15.70;99.90
758;DHT22;363;48.764;9.172;2022-09-09T03:46:25;15.50;99.90
758;DHT22;363;48.764;9.172;2022-09-09T03:48:51;15.50;99.90
758;DHT22;363;48.764;9.172;2022-09-09T03:51:20;15.80;99.90
758;DHT22;363;48.764;9.172;2022-09-09T03:53:46;15.80;99.90
758;DHT22;363;48.764;9.172;2022-09-09T03:56:13;15.70;99.90
758;DHT22;363;48.764;9.172;2022-09-09T03:58:39;15.50;99.90
758;DHT22;363;48.764;9.172;2022-09-09T04:01:08;15.60;99.90
758;DHT22;363;48.764;9.172;2022-09-09T04:03:34;15.70;99.90
758;DHT22;363;48.764;9.172;2022-09-09T04:06:03;15.80;99.90
758;DHT22;363;48.764;9.172;2022-09-09T04:08:30;15.70;99.90
758;DHT22;363;48.764;9.172;2022-09-09T04:10:59;15.80;99.90
758;DHT22;363;48.764;9.172;2022-09-09T04:13:27;15.90;99.90
758;DHT22;363;48.764;9.172;2022-09-09T04:15:55;15.70;99.90
758;DHT22;363;48.764;9.172;2022-09-09T04:18:22;15.80;99.90
758;DHT22;363;48.764;9.172;2022-09-09T04:20:49;15.90;99.90
758;DHT22;363;48.764;9.172;2022-09-09T04:23:15;16.00;99.90
758;DHT22;363;48.764;9.172;2022-09-09T04:25:45;16.20;99.90
758;DHT22;363;48.764;9.172;2022-09-09T04:28:13;16.20;99.90
758;DHT22;363;48.764;9.172;2022-09-09T04:30:39;16.20;99.90
758;DHT22;363;48.764;9.172;2022-09-09T04:33:05;16.50;99.90
758;DHT22;363;48.764;9.172;2022-09-09T04:35:32;16.40;99.90
758;DHT22;363;48.764;9.172;2022-09-09T04:37:57;16.60;99.90
758;DHT22;363;48.764;9.172;2022-09-09T04:40:23;16.50;99.90
758;DHT22;363;48.764;9.172;2022-09-09T04:42:48;16.70;99.90
758;DHT22;363;48.764;9.172;2022-09-09T04:45:15;16.90;99.90
758;DHT22;363;48.764;9.172;2022-09-09T04:47:41;16.90;99.90
758;DHT22;363;48.764;9.172;2022-09-09T04:50:08;16.90;99.90
758;DHT22;363;48.764;9.172;2022-09-09T04:52:36;16.80;99.90
758;DHT22;363;48.764;9.172;2022-09-09T04:55:03;16.60;99.90
758;DHT22;363;48.764;9.172;2022-09-09T04:57:28;16.80;99.90
758;DHT22;363;48.764;9.172;2022-09-09T04:59:57;16.90;99.90
758;DHT22;363;48.764;9.172;2022-09-09T05:02:22;16.60;99.90
758;DHT22;363;48.764;9.172;2022-09-09T05:04:48;16.60;99.90
758;DHT22;363;48.764;9.172;2022-09-09T05:07:15;16.60;99.90
758;DHT22;363;48.764;9.172;2022-09-09T05:09:40;16.30;99.90
758;DHT22;363;48.764;9.172;2022-09-09T05:12:06;16.30;99.90
758;DHT22;363;48.764;9.172;2022-09-09T05:14:32;16.40;99.90
758;DHT22;363;48.764;9.172;2022-09-09T05:16:57;16.40;99.90
758;DHT22;363;48.764;9.172;2022-09-09T05:19:23;16.30;99.90
758;DHT22;363;48.764;9.172;2022-09-09T05:21:49;16.30;99.90
758;DHT22;363;48.764;9.172;2022-09-09T05:24:15;16.20;99.90
758;DHT22;363;48.764;9.172;2022-09-09T05:26:42;16.50;99.90
758;DHT22;363;48.764;9.172;2022-09-09T05:29:08;16.40;99.90
758;DHT22;363;48.764;9.172;2022-09-09T05:31:34;16.50;99.90
758;DHT22;363;48.764;9.172;2022-09-09T05:34:00;16.70;99.90
758;DHT22;363;48.764;9.172;2022-09-09T05:36:25;16.60;99.90
758;DHT22;363;48.764;9.172;2022-09-09T05:38:51;16.60;99.90
758;DHT22;363;48.764;9.172;2022-09-09T05:41:19;16.70;99.90
758;DHT22;363;48.764;9.172;2022-09-09T05:43:46;16.80;99.90
758;DHT22;363;48.764;9.172;2022-09-09T05:46:18;16.90;99.90
758;DHT22;363;48.764;9.172;2022-09-09T05:48:45;17.00;99.90
758;DHT22;363;48.764;9.172;2022-09-09T05:51:13;17.00;99.90
758;DHT22;363;48.764;9.172;2022-09-09T05:53:41;17.10;99.90
758;DHT22;363;48.764;9.172;2022-09-09T05:56:13;17.10;99.90
758;DHT22;363;48.764;9.172;2022-09-09T05:58:40;17.30;99.90
758;DHT22;363;48.764;9.172;2022-09-09T06:01:28;17.30;99.90
758;DHT22;363;48.764;9.172;2022-09-09T06:03:54;17.50;99.90
758;DHT22;363;48.764;9.172;2022-09-09T06:06:35;17.60;99.90
758;DHT22;363;48.764;9.172;2022-09-09T06:09:05;17.30;99.90
758;DHT22;363;48.764;9.172;2022-09-09T06:11:37;17.80;99.90
758;DHT22;363;48.764;9.172;2022-09-09T06:14:03;17.80;99.90
758;DHT22;363;48.764;9.172;2022-09-09T06:16:30;17.90;99.90
758;DHT22;363;48.764;9.172;2022-09-09T06:18:58;18.00;99.90
758;DHT22;363;48.764;9.172;2022-09-09T06:21:26;18.00;99.90
758;DHT22;363;48.764;9.172;2022-09-09T06:23:52;18.10;99.90
758;DHT22;363;48.764;9.172;2022-09-09T06:26:23;18.10;99.90
758;DHT22;363;48.764;9.172;2022-09-09T06:28:51;18.20;99.90
758;DHT22;363;48.764;9.172;2022-09-09T06:31:20;18.00;99.90
758;DHT22;363;48.764;9.172;2022-09-09T06:33:50;18.20;99.90
758;DHT22;363;48.764;9.172;2022-09-09T06:38:44;18.20;99.90
758;DHT22;363;48.764;9.172;2022-09-09T06:41:11;18.30;99.90
758;DHT22;363;48.764;9.172;2022-09-09T06:43:37;18.70;99.90
758;DHT22;363;48.764;9.172;2022-09-09T06:46:04;18.70;99.90
758;DHT22;363;48.764;9.172;2022-09-09T06:48:31;18.60;99.90
758;DHT22;363;48.764;9.172;2022-09-09T06:51:09;18.70;99.90
758;DHT22;363;48.764;9.172;2022-09-09T06:53:37;18.70;99.90
758;DHT22;363;48.764;9.172;2022-09-09T06:58:36;19.10;99.90
758;DHT22;363;48.764;9.172;2022-09-09T07:01:06;18.90;99.90
758;DHT22;363;48.764;9.172;2022-09-09T07:03:32;19.10;99.70
758;DHT22;363;48.764;9.172;2022-09-09T07:05:59;19.10;99.40
758;DHT22;363;48.764;9.172;2022-09-09T07:08:25;19.20;99.30
758;DHT22;363;48.764;9.172;2022-09-09T07:10:53;19.20;99.40
758;DHT22;363;48.764;9.172;2022-09-09T07:13:24;19.40;99.00
758;DHT22;363;48.764;9.172;2022-09-09T07:15:51;19.60;99.00
758;DHT22;363;48.764;9.172;2022-09-09T07:18:17;19.60;98.70
758;DHT22;363;48.764;9.172;2022-09-09T07:20:42;19.50;98.70
758;DHT22;363;48.764;9.172;2022-09-09T07:23:08;19.70;98.30
758;DHT22;363;48.764;9.172;2022-09-09T07:25:34;20.00;97.70
758;DHT22;363;48.764;9.172;2022-09-09T07:27:59;20.30;97.60
758;DHT22;363;48.764;9.172;2022-09-09T07:30:25;20.50;96.80
758;DHT22;363;48.764;9.172;2022-09-09T07:32:51;21.10;96.30
758;DHT22;363;48.764;9.172;2022-09-09T07:35:17;22.40;94.20
758;DHT22;363;48.764;9.172;2022-09-09T07:37:43;23.10;92.30
758;DHT22;363;48.764;9.172;2022-09-09T07:40:10;23.40;91.10
758;DHT22;363;48.764;9.172;2022-09-09T07:42:36;23.80;91.00
758;DHT22;363;48.764;9.172;2022-09-09T07:45:03;24.50;89.90
758;DHT22;363;48.764;9.172;2022-09-09T07:47:29;25.60;85.50
758;DHT22;363;48.764;9.172;2022-09-09T07:49:55;27.10;80.00
758;DHT22;363;48.764;9.172;2022-09-09T07:52:21;27.80;74.30
758;DHT22;363;48.764;9.172;2022-09-09T07:54:48;28.20;72.00
758;DHT22;363;48.764;9.172;2022-09-09T07:57:16;27.30;72.20
758;DHT22;363;48.764;9.172;2022-09-09T07:59:41;27.50;73.60
758;DHT22;363;48.764;9.172;2022-09-09T08:02:09;28.90;69.20
758;DHT22;363;48.764;9.172;2022-09-09T08:04:34;29.70;66.10
758;DHT22;363;48.764;9.172;2022-09-09T08:07:00;30.70;63.10
758;DHT22;363;48.764;9.172;2022-09-09T08:09:27;31.60;59.00
758;DHT22;363;48.764;9.172;2022-09-09T08:11:57;31.50;57.30
758;DHT22;363;48.764;9.172;2022-09-09T08:14:23;32.20;56.00
758;DHT22;363;48.764;9.172;2022-09-09T08:16:49;31.50;55.10
758;DHT22;363;48.764;9.172;2022-09-09T08:19:16;32.40;54.40
758;DHT22;363;48.764;9.172;2022-09-09T08:21:43;32.70;53.20
758;DHT22;363;48.764;9.172;2022-09-09T08:24:10;32.40;53.50
758;DHT22;363;48.764;9.172;2022-09-09T08:26:38;32.90;52.90
758;DHT22;363;48.764;9.172;2022-09-09T08:29:05;33.60;51.40
758;DHT22;363;48.764;9.172;2022-09-09T08:31:40;33.60;50.30
758;DHT22;363;48.764;9.172;2022-09-09T08:34:06;33.10;50.20
758;DHT22;363;48.764;9.172;2022-09-09T08:36:34;32.80;50.80
758;DHT22;363;48.764;9.172;2022-09-09T08:39:02;32.00;51.40
758;DHT22;363;48.764;9.172;2022-09-09T08:44:23;30.70;54.30
758;DHT22;363;48.764;9.172;2022-09-09T08:47:04;30.00;54.30
758;DHT22;363;48.764;9.172;2022-09-09T08:52:23;27.40;59.60
758;DHT22;363;48.764;9.172;2022-09-09T08:54:51;26.40;63.80
758;DHT22;363;48.764;9.172;2022-09-09T08:57:23;25.80;64.90
758;DHT22;363;48.764;9.172;2022-09-09T08:59:52;25.20;66.20
758;DHT22;363;48.764;9.172;2022-09-09T09:02:46;24.70;69.20
758;DHT22;363;48.764;9.172;2022-09-09T09:05:31;24.30;70.40
758;DHT22;363;48.764;9.172;2022-09-09T09:08:19;23.80;72.40
758;DHT22;363;48.764;9.172;2022-09-09T09:10:51;23.60;72.00
758;DHT22;363;48.764;9.172;2022-09-09T09:13:41;23.30;72.20
758;DHT22;363;48.764;9.172;2022-09-09T09:16:25;23.10;73.50
758;DHT22;363;48.764;9.172;2022-09-09T09:18:52;23.00;73.50
758;DHT22;363;48.764;9.172;2022-09-09T09:21:39;23.00;75.10
758;DHT22;363;48.764;9.172;2022-09-09T09:27:56;22.90;80.80
758;DHT22;363;48.764;9.172;2022-09-09T09:29:56;22.70;83.40
758;DHT22;363;48.764;9.172;2022-09-09T09:32:29;22.50;84.40
758;DHT22;363;48.764;9.172;2022-09-09T09:34:57;22.10;84.70
758;DHT22;363;48.764;9.172;2022-09-09T09:37:34;21.70;90.30
758;DHT22;363;48.764;9.172;2022-09-09T09:40:17;21.30;88.90
758;DHT22;363;48.764;9.172;2022-09-09T09:42:51;21.20;89.70
758;DHT22;363;48.764;9.172;2022-09-09T09:45:43;21.50;91.10
758;DHT22;363;48.764;9.172;2022-09-09T09:48:12;21.90;90.50
758;DHT22;363;48.764;9.172;2022-09-09T09:55:53;21.80;91.70
758;DHT22;363;48.764;9.172;2022-09-09T09:58:19;21.80;92.30
758;DHT22;363;48.764;9.172;2022-09-09T10:00:49;21.90;91.80
758;DHT22;363;48.764;9.172;2022-09-09T10:03:30;21.90;91.10
758;DHT22;363;48.764;9.172;2022-09-09T10:05:57;22.00;88.50
758;DHT22;363;48.764;9.172;2022-09-09T10:08:26;22.10;89.10
758;DHT22;363;48.764;9.172;2022-09-09T10:13:52;22.30;89.20
758;DHT22;363;48.764;9.172;2022-09-09T10:16:58;22.40;88.60
758;DHT22;363;48.764;9.172;2022-09-09T10:27:57;22.60;87.90
758;DHT22;363;48.764;9.172;2022-09-09T10:30:35;22.80;88.90
758;DHT22;363;48.764;9.172;2022-09-09T10:33:18;23.00;89.70
758;DHT22;363;48.764;9.172;2022-09-09T10:36:11;23.00;88.90
758;DHT22;363;48.764;9.172;2022-09-09T10:49:57;23.10;88.70
758;DHT22;363;48.764;9.172;2022-09-09T10:55:19;22.80;90.40
758;DHT22;363;48.764;9.172;2022-09-09T10:57:48;22.80;90.30
758;DHT22;363;48.764;9.172;2022-09-09T11:00:24;22.90;90.20
758;DHT22;363;48.764;9.172;2022-09-09T11:02:58;23.10;90.30
758;DHT22;363;48.764;9.172;2022-09-09T11:05:46;23.40;88.60
758;DHT22;363;48.764;9.172;2022-09-09T11:08:29;23.40;87.70
758;DHT22;363;48.764;9.172;2022-09-09T11:11:10;23.20;87.70
758;DHT22;363;48.764;9.172;2022-09-09T11:19:04;23.50;85.90
758;DHT22;363;48.764;9.172;2022-09-09T11:21:39;23.80;83.60
758;DHT22;363;48.764;9.172;2022-09-09T11:24:13;23.80;78.80
758;DHT22;363;48.764;9.172;2022-09-09T11:29:44;23.20;75.40
758;DHT22;363;48.764;9.172;2022-09-09T11:35:24;22.60;75.70
758;DHT22;363;48.764;9.172;2022-09-09T11:38:08;22.50;76.20
758;DHT22;363;48.764;9.172;2022-09-09T11:40:39;22.20;77.40
758;DHT22;363;48.764;9.172;2022-09-09T11:43:29;22.10;79.80
758;DHT22;363;48.764;9.172;2022-09-09T11:45:59;22.00;80.60
758;DHT22;363;48.764;9.172;2022-09-09T11:48:37;21.80;80.70
758;DHT22;363;48.764;9.172;2022-09-09T11:51:08;21.60;81.30
758;DHT22;363;48.764;9.172;2022-09-09T11:53:47;21.70;81.80
758;DHT22;363;48.764;9.172;2022-09-09T11:56:27;21.40;81.80
758;DHT22;363;48.764;9.172;2022-09-09T11:59:06;21.40;83.60
758;DHT22;363;48.764;9.172;2022-09-09T12:01:39;21.60;82.60
758;DHT22;363;48.764;9.172;2022-09-09T12:04:33;21.30;80.60
758;DHT22;363;48.764;9.172;2022-09-09T12:12:37;21.90;79.10
758;DHT22;363;48.764;9.172;2022-09-09T12:20:13;21.90;80.50
758;DHT22;363;48.764;9.172;2022-09-09T12:25:41;22.30;79.70
758;DHT22;363;48.764;9.172;2022-09-09T12:31:16;22.50;76.80
758;DHT22;363;48.764;9.172;2022-09-09T12:33:44;22.70;76.40
758;DHT22;363;48.764;9.172;2022-09-09T12:36:15;22.70;72.40
758;DHT22;363;48.764;9.172;2022-09-09T12:38:43;22.80;72.70
758;DHT22;363;48.764;9.172;2022-09-09T12:41:26;22.80;70.80
758;DHT22;363;48.764;9.172;2022-09-09T12:44:06;22.80;71.70
758;DHT22;363;48.764;9.172;2022-09-09T12:46:36;22.60;71.20
758;DHT22;363;48.764;9.172;2022-09-09T12:49:04;22.30;73.10
758;DHT22;363;48.764;9.172;2022-09-09T12:51:32;22.30;74.00
758;DHT22;363;48.764;9.172;2022-09-09T12:53:59;22.40;74.90
758;DHT22;363;48.764;9.172;2022-09-09T12:56:31;22.50;75.50
758;DHT22;363;48.764;9.172;2022-09-09T12:58:58;22.50;76.40
758;DHT22;363;48.764;9.172;2022-09-09T13:01:26;23.30;76.20
758;DHT22;363;48.764;9.172;2022-09-09T13:03:52;22.70;74.70
758;DHT22;363;48.764;9.172;2022-09-09T13:06:29;22.70;75.70
758;DHT22;363;48.764;9.172;2022-09-09T13:08:57;22.60;75.30
758;DHT22;363;48.764;9.172;2022-09-09T13:11:29;22.50;75.80
758;DHT22;363;48.764;9.172;2022-09-09T13:13:57;22.50;77.10
758;DHT22;363;48.764;9.172;2022-09-09T13:16:29;22.60;76.50
758;DHT22;363;48.764;9.172;2022-09-09T13:18:59;22.80;75.40
758;DHT22;363;48.764;9.172;2022-09-09T13:21:34;22.80;75.30
758;DHT22;363;48.764;9.172;2022-09-09T13:24:00;23.10;74.80
758;DHT22;363;48.764;9.172;2022-09-09T13:26:29;23.20;74.90
758;DHT22;363;48.764;9.172;2022-09-09T13:29:09;23.30;73.60
758;DHT22;363;48.764;9.172;2022-09-09T13:31:43;23.40;73.50
758;DHT22;363;48.764;9.172;2022-09-09T13:34:27;23.40;73.40
758;DHT22;363;48.764;9.172;2022-09-09T13:37:00;23.50;73.70
758;DHT22;363;48.764;9.172;2022-09-09T13:39:28;23.60;71.70
758;DHT22;363;48.764;9.172;2022-09-09T13:41:54;23.50;70.40
758;DHT22;363;48.764;9.172;2022-09-09T13:44:35;23.50;69.60
758;DHT22;363;48.764;9.172;2022-09-09T13:47:05;23.40;70.00
758;DHT22;363;48.764;9.172;2022-09-09T13:49:31;23.50;68.90
758;DHT22;363;48.764;9.172;2022-09-09T13:52:15;23.50;69.30
758;DHT22;363;48.764;9.172;2022-09-09T13:54:42;23.80;69.10
758;DHT22;363;48.764;9.172;2022-09-09T13:57:20;23.80;69.00
758;DHT22;363;48.764;9.172;2022-09-09T13:59:46;23.80;69.40
758;DHT22;363;48.764;9.172;2022-09-09T14:02:13;24.00;69.30
758;DHT22;363;48.764;9.172;2022-09-09T14:04:39;24.10;68.60
758;DHT22;363;48.764;9.172;2022-09-09T14:07:11;24.20;68.40
758;DHT22;363;48.764;9.172;2022-09-09T14:09:37;24.00;66.90
758;DHT22;363;48.764;9.172;2022-09-09T14:12:04;24.00;67.00
758;DHT22;363;48.764;9.172;2022-09-09T14:14:30;24.00;66.40
758;DHT22;363;48.764;9.172;2022-09-09T14:16:55;24.00;66.20
758;DHT22;363;48.764;9.172;2022-09-09T14:19:21;24.00;66.30
758;DHT22;363;48.764;9.172;2022-09-09T14:21:46;23.90;66.50
758;DHT22;363;48.764;9.172;2022-09-09T14:24:12;23.90;66.40
758;DHT22;363;48.764;9.172;2022-09-09T14:26:38;23.90;66.60
758;DHT22;363;48.764;9.172;2022-09-09T14:29:03;23.90;66.50
758;DHT22;363;48.764;9.172;2022-09-09T14:31:29;23.80;66.00
758;DHT22;363;48.764;9.172;2022-09-09T14:33:55;23.70;66.20
758;DHT22;363;48.764;9.172;2022-09-09T14:36:21;23.80;65.30
758;DHT22;363;48.764;9.172;2022-09-09T14:38:47;23.80;65.10
758;DHT22;363;48.764;9.172;2022-09-09T14:41:15;23.80;63.90
758;DHT22;363;48.764;9.172;2022-09-09T14:43:46;23.80;64.80
758;DHT22;363;48.764;9.172;2022-09-09T14:46:14;24.50;65.20
758;DHT22;363;48.764;9.172;2022-09-09T14:48:40;23.70;65.10
758;DHT22;363;48.764;9.172;2022-09-09T14:51:17;23.70;65.40
758;DHT22;363;48.764;9.172;2022-09-09T14:53:45;23.80;65.10
758;DHT22;363;48.764;9.172;2022-09-09T14:56:16;23.70;64.70
758;DHT22;363;48.764;9.172;2022-09-09T14:58:43;23.70;65.40
758;DHT22;363;48.764;9.172;2022-09-09T15:01:17;23.70;64.30
758;DHT22;363;48.764;9.172;2022-09-09T15:03:52;23.70;64.70
758;DHT22;363;48.764;9.172;2022-09-09T15:06:18;23.70;64.10
758;DHT22;363;48.764;9.172;2022-09-09T15:08:45;23.70;63.30
758;DHT22;363;48.764;9.172;2022-09-09T15:11:12;23.60;63.80
758;DHT22;363;48.764;9.172;2022-09-09T15:13:40;23.50;63.30
758;DHT22;363;48.764;9.172;2022-09-09T15:16:08;23.30;63.70
758;DHT22;363;48.764;9.172;2022-09-09T15:18:34;23.20;64.50
758;DHT22;363;48.764;9.172;2022-09-09T15:21:02;23.10;65.20
758;DHT22;363;48.764;9.172;2022-09-09T15:23:34;23.00;65.90
758;DHT22;363;48.764;9.172;2022-09-09T15:26:01;23.00;66.20
758;DHT22;363;48.764;9.172;2022-09-09T15:28:26;22.90;65.30
758;DHT22;363;48.764;9.172;2022-09-09T15:30:53;22.90;65.50
758;DHT22;363;48.764;9.172;2022-09-09T15:33:20;23.00;66.40
758;DHT22;363;48.764;9.172;2022-09-09T15:35:46;23.10;65.90
758;DHT22;363;48.764;9.172;2022-09-09T15:38:12;23.20;65.80
758;DHT22;363;48.764;9.172;2022-09-09T15:40:42;23.20;65.70
758;DHT22;363;48.764;9.172;2022-09-09T15:43:08;23.30;65.40
758;DHT22;363;48.764;9.172;2022-09-09T15:45:35;23.30;65.50
758;DHT22;363;48.764;9.172;2022-09-09T15:48:01;23.30;66.10
758;DHT22;363;48.764;9.172;2022-09-09T15:50:28;23.10;66.00
758;DHT22;363;48.764;9.172;2022-09-09T15:52:55;23.00;66.10
758;DHT22;363;48.764;9.172;2022-09-09T15:55:21;22.90;66.70
758;DHT22;363;48.764;9.172;2022-09-09T15:57:46;22.80;66.40
758;DHT22;363;48.764;9.172;2022-09-09T16:00:13;22.70;66.20
758;DHT22;363;48.764;9.172;2022-09-09T16:02:39;22.60;66.50
758;DHT22;363;48.764;9.172;2022-09-09T16:05:05;22.60;65.90
758;DHT22;363;48.764;9.172;2022-09-09T16:07:31;22.50;65.50
758;DHT22;363;48.764;9.172;2022-09-09T16:09:57;22.50;65.60
758;DHT22;363;48.764;9.172;2022-09-09T16:12:22;22.40;65.20
758;DHT22;363;48.764;9.172;2022-09-09T16:14:48;22.40;65.30
758;DHT22;363;48.764;9.172;2022-09-09T16:17:14;22.40;65.60
758;DHT22;363;48.764;9.172;2022-09-09T16:19:40;22.40;67.10
758;DHT22;363;48.764;9.172;2022-09-09T16:22:06;22.40;65.90
758;DHT22;363;48.764;9.172;2022-09-09T16:24:32;22.40;66.20
758;DHT22;363;48.764;9.172;2022-09-09T16:26:58;22.30;66.30
758;DHT22;363;48.764;9.172;2022-09-09T16:29:24;22.30;66.80
758;DHT22;363;48.764;9.172;2022-09-09T16:31:52;22.30;67.20
758;DHT22;363;48.764;9.172;2022-09-09T16:34:19;22.40;67.30
758;DHT22;363;48.764;9.172;2022-09-09T16:36:46;22.30;67.90
758;DHT22;363;48.764;9.172;2022-09-09T16:39:17;22.30;68.50
758;DHT22;363;48.764;9.172;2022-09-09T16:41:44;22.30;69.20
758;DHT22;363;48.764;9.172;2022-09-09T16:44:11;22.10;71.00
758;DHT22;363;48.764;9.172;2022-09-09T16:46:39;22.40;72.80
758;DHT22;363;48.764;9.172;2022-09-09T16:49:08;21.80;73.10
758;DHT22;363;48.764;9.172;2022-09-09T16:51:57;21.70;73.50
758;DHT22;363;48.764;9.172;2022-09-09T16:54:21;21.70;73.50
758;DHT22;363;48.764;9.172;2022-09-09T16:56:48;21.60;72.20
758;DHT22;363;48.764;9.172;2022-09-09T16:59:17;21.50;72.80
758;DHT22;363;48.764;9.172;2022-09-09T17:01:44;21.20;72.90
758;DHT22;363;48.764;9.172;2022-09-09T17:04:15;21.10;73.20
758;DHT22;363;48.764;9.172;2022-09-09T17:06:46;20.70;73.30
758;DHT22;363;48.764;9.172;2022-09-09T17:09:14;20.90;73.40
758;DHT22;363;48.764;9.172;2022-09-09T17:11:40;20.80;74.40
758;DHT22;363;48.764;9.172;2022-09-09T17:14:08;20.70;75.70
758;DHT22;363;48.764;9.172;2022-09-09T17:16:35;20.70;76.30
758;DHT22;363;48.764;9.172;2022-09-09T17:19:01;20.50;76.20
758;DHT22;363;48.764;9.172;2022-09-09T17:21:29;20.40;76.90
758;DHT22;363;48.764;9.172;2022-09-09T17:23:56;20.30;77.80
758;DHT22;363;48.764;9.172;2022-09-09T17:26:26;20.20;78.50
758;DHT22;363;48.764;9.172;2022-09-09T17:28:53;20.20;79.40
758;DHT22;363;48.764;9.172;2022-09-09T17:31:20;20.10;80.20
758;DHT22;363;48.764;9.172;2022-09-09T17:33:47;19.90;80.90
758;DHT22;363;48.764;9.172;2022-09-09T17:36:15;19.80;81.90
758;DHT22;363;48.764;9.172;2022-09-09T17:38:42;19.80;82.60
758;DHT22;363;48.764;9.172;2022-09-09T17:41:28;19.70;83.30
758;DHT22;363;48.764;9.172;2022-09-09T17:43:55;19.60;84.00
758;DHT22;363;48.764;9.172;2022-09-09T17:48:54;19.50;85.50
758;DHT22;363;48.764;9.172;2022-09-09T17:51:23;19.40;86.00
758;DHT22;363;48.764;9.172;2022-09-09T17:53:52;19.40;86.40
758;DHT22;363;48.764;9.172;2022-09-09T17:56:20;19.30;88.80
758;DHT22;363;48.764;9.172;2022-09-09T17:58:47;19.30;89.80
758;DHT22;363;48.764;9.172;2022-09-09T18:01:19;19.40;87.80
758;DHT22;363;48.764;9.172;2022-09-09T18:03:46;19.30;88.00
758;DHT22;363;48.764;9.172;2022-09-09T18:06:16;19.30;87.90
758;DHT22;363;48.764;9.172;2022-09-09T18:08:47;19.40;88.40
758;DHT22;363;48.764;9.172;2022-09-09T18:11:13;19.20;88.90
758;DHT22;363;48.764;9.172;2022-09-09T18:13:39;19.20;89.30
758;DHT22;363;48.764;9.172;2022-09-09T18:16:09;19.30;89.50
758;DHT22;363;48.764;9.172;2022-09-09T18:18:35;19.30;89.70
758;DHT22;363;48.764;9.172;2022-09-09T18:21:06;19.30;89.90
758;DHT22;363;48.764;9.172;2022-09-09T18:23:36;19.00;89.60
758;DHT22;363;48.764;9.172;2022-09-09T18:26:11;19.40;90.00
758;DHT22;363;48.764;9.172;2022-09-09T18:28:38;19.30;90.00
758;DHT22;363;48.764;9.172;2022-09-09T18:31:12;19.20;90.30
758;DHT22;363;48.764;9.172;2022-09-09T18:33:41;19.20;90.50